Terminal Aerodrome Forecast
Issued by NWS Jackson, MS

Home | Current Version | Previous Version | Text Only | Print | Product List | Glossary On
Versions: 1 2 3 4 5 6 7 8 9 10 11 12 13 14 15 16 17 18 19 20 21 22 23
000
FTUS44 KJAN 040222 AAC
TAFGWO
TAF AMD
KGWO 040222Z 0402/0424 19007KT P6SM SCT080 BKN200
     FM040800 19006KT 5SM -SHRA VCTS BKN040CB
     FM041400 21006KT P6SM BKN060
     FM041800 24007KT 6SM -SHRA VCTS OVC050CB=

USA.gov is the U.S. government's official web portal to all federal, state and local government web resources and services.